Arroyo Seco, New Mexico
Current Conditions -  °F | °C
As of 3:55 AM on Thursday 27 Nov 2014 (Local Time) from KSKX Reporting Station
Clear Clear  
Wind Chill: 11°   Ceiling: Unl
Heat Index: 19°   Visibility: 10mi
Dew Point: 16°   Wind: 6mph
Humidity: 86%   Direction: 360°N
Pressure: 30.49"   Gusts: NA
Location:  36.52°N, 105.57°W
Report Text: KSKX 271055Z AUTO 36005KT 10SM CLR M07/M09 A3049 RMK AO1
Loading
Personal Weather Stations






























Interactive Weather Map New forecast layout! Learn more

10-Day Weather Forecast

Advertisements
Track Severe Weather on mobile